createdAt,value
2023-03-22T00:01:55.410Z,2.58
2023-03-22T00:08:01.008Z,3.35
2023-03-22T00:14:04.819Z,2.83
2023-03-22T00:20:09.286Z,3.45
2023-03-22T00:26:15.530Z,3.78
2023-03-22T00:32:18.988Z,3.30
2023-03-22T00:38:32.565Z,3.17
2023-03-22T00:44:44.467Z,2.72
2023-03-22T00:50:48.029Z,2.00
2023-03-22T00:56:52.154Z,3.15
2023-03-22T01:02:59.668Z,3.55
2023-03-22T01:09:05.244Z,3.97
2023-03-22T01:15:09.919Z,3.30
2023-03-22T01:21:14.895Z,2.70
2023-03-22T01:27:18.800Z,2.35
2023-03-22T01:33:22.480Z,2.35
2023-03-22T01:39:27.383Z,3.08
2023-03-22T01:45:41.422Z,2.10
2023-03-22T01:51:45.417Z,2.58
2023-03-22T01:57:50.962Z,3.08
2023-03-22T02:03:57.007Z,2.80
2023-03-22T02:10:00.936Z,2.50
2023-03-22T02:16:11.164Z,2.03
2023-03-22T02:22:30.781Z,2.20
2023-03-22T02:28:43.106Z,2.00
2023-03-22T02:34:59.941Z,1.63
2023-03-22T02:41:15.643Z,1.75
2023-03-22T02:47:22.550Z,1.50
2023-03-22T02:53:30.000Z,1.50
2023-03-22T02:59:37.593Z,1.65
2023-03-22T03:05:42.361Z,1.60
2023-03-22T03:11:47.045Z,1.20
2023-03-22T03:18:04.802Z,1.38
2023-03-22T03:24:12.586Z,1.80
2023-03-22T03:30:19.329Z,1.20
2023-03-22T03:36:25.184Z,1.15
2023-03-22T03:42:29.917Z,1.15
2023-03-22T03:48:34.707Z,1.30
2023-03-22T03:54:39.447Z,1.55
2023-03-22T04:00:42.892Z,1.00
2023-03-22T04:06:46.349Z,1.40
2023-03-22T04:12:51.139Z,1.20
2023-03-22T04:18:54.678Z,1.30
2023-03-22T04:24:59.966Z,1.08
2023-03-22T04:31:04.781Z,1.25
2023-03-22T04:37:08.273Z,1.20
2023-03-22T04:43:13.719Z,1.30
2023-03-22T04:49:18.872Z,1.20
2023-03-22T04:55:22.326Z,1.33
2023-03-22T05:01:25.804Z,1.17
2023-03-22T05:07:30.615Z,1.20
2023-03-22T05:13:34.046Z,0.82
2023-03-22T05:19:37.781Z,1.20
2023-03-22T05:25:45.238Z,1.63
2023-03-22T05:31:49.099Z,1.23
2023-03-22T05:37:52.688Z,0.95
2023-03-22T05:43:57.414Z,1.17
2023-03-22T05:50:00.808Z,1.50
2023-03-22T05:56:04.668Z,1.40
2023-03-22T06:02:09.543Z,1.13
2023-03-22T06:08:13.052Z,1.60
2023-03-22T06:14:17.007Z,1.20
2023-03-22T06:20:22.055Z,1.73
2023-03-22T06:26:25.559Z,1.50
2023-03-22T06:32:29.114Z,1.63
2023-03-22T06:38:33.973Z,1.65
2023-03-22T06:44:37.567Z,1.80
2023-03-22T06:50:44.092Z,1.60
2023-03-22T06:56:49.145Z,1.77
2023-03-22T07:02:52.916Z,1.50
2023-03-22T07:08:56.610Z,1.83
2023-03-22T07:15:01.395Z,1.63
2023-03-22T07:21:04.836Z,1.98
2023-03-22T07:27:08.479Z,1.40
2023-03-22T07:33:13.585Z,1.48
2023-03-22T07:39:17.075Z,1.80
2023-03-22T07:45:20.908Z,1.10
2023-03-22T07:51:25.856Z,0.90
2023-03-22T07:57:29.267Z,1.88
2023-03-22T08:03:32.860Z,1.40
2023-03-22T08:09:37.799Z,1.20
2023-03-22T08:15:43.310Z,1.30
2023-03-22T08:21:46.946Z,1.50
2023-03-22T08:27:51.721Z,1.00
2023-03-22T08:33:55.189Z,1.00
2023-03-22T08:39:58.701Z,1.17
2023-03-22T08:46:03.618Z,1.00
2023-03-22T08:52:09.033Z,1.20
2023-03-22T08:58:12.754Z,1.30
2023-03-22T09:04:17.801Z,1.20
2023-03-22T09:10:21.271Z,1.27
2023-03-22T09:16:24.710Z,0.98
2023-03-22T09:22:29.613Z,0.95
2023-03-22T09:28:33.165Z,1.00
2023-03-22T09:34:36.784Z,1.13
2023-03-22T09:40:45.628Z,1.27
2023-03-22T09:46:50.880Z,1.42
2023-03-22T09:52:55.218Z,1.33
2023-03-22T09:59:02.935Z,0.90
2023-03-22T10:05:13.607Z,0.95
2023-03-22T10:11:21.106Z,0.90
2023-03-22T10:17:28.022Z,1.33
2023-03-22T10:23:34.341Z,1.05
2023-03-22T10:29:39.915Z,1.42
2023-03-22T10:35:46.117Z,1.20
2023-03-22T10:41:50.029Z,1.17
2023-03-22T10:47:58.296Z,1.38
2023-03-22T10:54:03.493Z,1.30
2023-03-22T11:00:11.515Z,1.60
2023-03-22T11:06:16.079Z,0.88
2023-03-22T11:12:20.918Z,1.50
2023-03-22T11:18:24.912Z,1.52
2023-03-22T11:24:29.065Z,1.20
2023-03-22T11:30:34.475Z,1.38
2023-03-22T11:36:43.856Z,1.42
2023-03-22T11:42:47.570Z,1.40
2023-03-22T11:48:53.799Z,1.10
2023-03-22T11:54:57.671Z,0.82
2023-03-22T12:01:02.675Z,1.27
2023-03-22T12:07:12.308Z,1.40
2023-03-22T12:13:18.212Z,1.20
2023-03-22T12:19:27.091Z,1.98
2023-03-22T12:25:34.114Z,1.58
2023-03-22T12:31:39.276Z,1.73
2023-03-22T12:37:43.605Z,1.40
2023-03-22T12:43:52.752Z,1.75
2023-03-22T12:49:58.729Z,1.35
2023-03-22T12:56:02.826Z,2.00
2023-03-22T13:02:14.883Z,1.50
2023-03-22T13:08:21.635Z,1.77
2023-03-22T13:14:45.937Z,1.38
2023-03-22T13:21:08.527Z,1.60
2023-03-22T13:27:15.071Z,1.83
2023-03-22T13:33:22.412Z,1.40
2023-03-22T13:39:28.327Z,1.50
2023-03-22T13:45:33.796Z,1.33
2023-03-22T13:51:37.628Z,1.17
2023-03-22T13:57:47.717Z,1.65
2023-03-22T14:03:51.683Z,1.60
2023-03-22T14:09:56.746Z,1.77
2023-03-22T14:16:06.495Z,1.42
